Time;durP1;ratioP1;P1;durP2;ratioP2;P2;SDS_P1;SDS_P2;PMS_P1;PMS_P2;Temp;Humidity;BMP_temperature;BMP_pressure;BME280_temperature;BME280_humidity;BME280_pressure;Samples;Min_cycle;Max_cycle;Signal;HPM_P1;HPM_P2
2022/11/10 00:00:38;;;;;;;1.70;1.40;;;12.30;98.00;;;;;;5053747;28;20481;-67
2022/11/10 00:03:08;;;;;;;3.20;1.40;;;12.40;98.00;;;;;;5053615;28;20463;-67
2022/11/10 00:05:37;;;;;;;3.63;1.60;;;12.40;98.00;;;;;;5053798;28;20455;-67
2022/11/10 00:08:07;;;;;;;1.50;1.30;;;12.50;98.00;;;;;;5053782;28;20854;-66
2022/11/10 00:10:55;;;;;;;1.67;1.43;;;12.60;98.00;;;;;;5053736;28;20457;-67
2022/11/10 00:13:25;;;;;;;1.63;1.43;;;12.50;98.00;;;;;;5053466;28;20484;-66
2022/11/10 00:18:37;;;;;;;2.23;1.43;;;12.50;98.00;;;;;;5053492;28;20801;-67
2022/11/10 00:21:06;;;;;;;1.93;1.30;;;12.40;98.00;;;;;;5053616;28;20489;-66
2022/11/10 00:23:33;;;;;;;3.37;1.60;;;12.30;98.00;;;;;;5053673;28;20804;-67
2022/11/10 00:26:00;;;;;;;2.03;1.50;;;12.20;98.00;;;;;;5053497;28;21120;-67
2022/11/10 00:28:31;;;;;;;2.23;1.40;;;12.20;98.00;;;;;;5053512;28;20935;-67
2022/11/10 00:30:59;;;;;;;1.73;1.50;;;12.20;98.00;;;;;;5053165;28;20464;-67
2022/11/10 00:33:30;;;;;;;3.67;1.60;;;12.20;98.00;;;;;;5053192;28;20459;-67
2022/11/10 00:36:00;;;;;;;2.00;1.40;;;12.20;98.00;;;;;;5053039;28;20476;-67
2022/11/10 00:38:27;;;;;;;1.90;1.43;;;12.20;98.00;;;;;;5053046;28;20458;-66
2022/11/10 00:40:54;;;;;;;2.90;1.63;;;12.20;98.00;;;;;;5052846;28;20489;-66
2022/11/10 00:43:21;;;;;;;2.00;1.50;;;12.30;98.00;;;;;;5052717;28;20457;-66
2022/11/10 00:45:52;;;;;;;2.57;2.00;;;12.20;98.00;;;;;;5035351;28;20522;-66
2022/11/10 00:48:19;;;;;;;2.43;1.70;;;12.20;98.00;;;;;;5052819;28;20940;-66
2022/11/10 00:50:46;;;;;;;1.73;1.50;;;12.10;98.00;;;;;;5052474;28;20460;-66
2022/11/10 00:53:14;;;;;;;1.93;1.63;;;12.10;98.00;;;;;;5052214;28;20455;-66
2022/11/10 00:55:41;;;;;;;2.00;1.40;;;12.20;98.00;;;;;;5035218;28;20841;-67
2022/11/10 00:58:11;;;;;;;3.83;1.70;;;12.20;98.00;;;;;;5052782;28;20459;-67
2022/11/10 01:00:39;;;;;;;1.77;1.57;;;12.20;98.00;;;;;;5052629;28;20807;-66
2022/11/10 01:03:08;;;;;;;5.80;3.20;;;12.20;98.00;;;;;;5052703;28;20459;-67
2022/11/10 01:05:37;;;;;;;2.30;1.60;;;12.20;98.00;;;;;;5052378;28;20980;-67
2022/11/10 01:08:04;;;;;;;1.43;1.37;;;12.20;98.00;;;;;;5051810;28;20544;-67
2022/11/10 01:10:31;;;;;;;2.00;1.57;;;12.10;98.00;;;;;;5035056;28;20459;-67
2022/11/10 01:13:00;;;;;;;2.10;1.50;;;12.10;98.00;;;;;;5052549;28;20851;-66
2022/11/10 01:15:27;;;;;;;2.03;1.80;;;12.00;98.00;;;;;;5052467;28;20933;-67
2022/11/10 01:17:55;;;;;;;2.13;1.70;;;12.00;98.00;;;;;;5052537;28;20512;-67
2022/11/10 01:20:25;;;;;;;1.60;1.40;;;11.90;98.00;;;;;;5052524;28;20459;-67
2022/11/10 01:22:52;;;;;;;4.70;1.70;;;11.90;98.00;;;;;;5052213;28;20514;-67
2022/11/10 01:25:22;;;;;;;1.90;1.30;;;11.80;98.00;;;;;;5052331;28;20508;-66
2022/11/10 01:27:50;;;;;;;2.60;1.50;;;11.90;98.00;;;;;;5052275;28;20824;-66
2022/11/10 01:30:18;;;;;;;2.73;1.57;;;11.80;98.00;;;;;;5051926;28;20517;-66
2022/11/10 01:32:45;;;;;;;1.43;1.40;;;11.90;98.00;;;;;;5051985;28;20473;-66
2022/11/10 01:35:12;;;;;;;2.07;1.43;;;11.80;98.00;;;;;;5052011;28;20462;-67
2022/11/10 01:37:41;;;;;;;2.23;1.60;;;11.90;98.00;;;;;;5052147;28;21006;-67
2022/11/10 01:40:10;;;;;;;2.10;1.70;;;11.90;98.00;;;;;;5052095;28;20474;-67
2022/11/10 01:42:45;;;;;;;1.53;1.23;;;12.00;98.00;;;;;;5052115;28;20483;-66
2022/11/10 01:45:39;;;;;;;6.13;1.80;;;12.00;98.00;;;;;;5051893;28;20493;-67
2022/11/10 01:48:09;;;;;;;2.07;1.50;;;11.90;98.00;;;;;;5052081;28;20463;-67
2022/11/10 01:50:40;;;;;;;1.60;1.57;;;11.90;98.00;;;;;;5051884;28;20991;-67
2022/11/10 01:53:15;;;;;;;2.17;1.77;;;12.00;98.00;;;;;;5051895;28;20455;-67
2022/11/10 01:55:45;;;;;;;1.30;1.30;;;12.00;98.00;;;;;;5051796;28;20458;-67
2022/11/10 01:58:19;;;;;;;3.20;1.87;;;12.00;98.00;;;;;;5051754;28;20452;-66
2022/11/10 02:00:46;;;;;;;2.43;1.80;;;12.00;98.00;;;;;;5051952;28;20459;-67
2022/11/10 02:03:19;;;;;;;1.73;1.50;;;12.00;98.00;;;;;;5034496;28;20454;-67
2022/11/10 02:05:46;;;;;;;1.70;1.40;;;12.00;98.00;;;;;;5051974;28;20455;-66
2022/11/10 02:08:17;;;;;;;2.80;1.60;;;12.00;98.00;;;;;;5051855;28;20497;-66
2022/11/10 02:10:45;;;;;;;3.20;1.60;;;12.00;98.00;;;;;;5051902;28;20456;-67
2022/11/10 02:13:12;;;;;;;1.60;1.50;;;12.10;98.00;;;;;;5052035;28;20456;-67
2022/11/10 02:15:40;;;;;;;2.93;1.63;;;12.10;98.00;;;;;;5051706;28;20464;-67
2022/11/10 02:18:07;;;;;;;3.07;1.53;;;12.10;98.00;;;;;;5051937;28;20464;-67
2022/11/10 02:20:34;;;;;;;2.07;1.60;;;12.10;98.00;;;;;;5055854;28;20460;-67
2022/11/10 02:23:14;;;;;;;2.10;1.43;;;12.10;98.00;;;;;;5055296;28;20485;-67
2022/11/10 02:25:42;;;;;;;2.43;1.50;;;12.20;98.00;;;;;;5037808;28;20450;-66
2022/11/10 02:28:09;;;;;;;2.03;1.40;;;12.20;98.00;;;;;;5055541;28;20459;-66
2022/11/10 02:30:36;;;;;;;3.10;1.30;;;12.20;98.00;;;;;;5055248;28;20468;-66
2022/11/10 02:33:05;;;;;;;1.60;1.30;;;12.10;98.00;;;;;;5055065;28;20455;-67
2022/11/10 02:35:32;;;;;;;5.23;1.50;;;12.10;98.00;;;;;;5055422;28;20464;-67
2022/11/10 02:37:59;;;;;;;2.87;1.87;;;12.00;98.00;;;;;;5055395;28;20512;-67
2022/11/10 02:40:28;;;;;;;2.73;1.57;;;12.10;98.00;;;;;;5055279;28;20461;-66
2022/11/10 02:42:55;;;;;;;1.43;1.30;;;12.00;98.00;;;;;;5055125;28;20482;-67
2022/11/10 02:45:22;;;;;;;2.60;1.67;;;12.10;98.00;;;;;;5055353;28;21017;-67
2022/11/10 02:47:49;;;;;;;4.70;1.60;;;12.10;98.00;;;;;;5054564;28;20446;-67
2022/11/10 02:50:17;;;;;;;2.67;1.90;;;12.10;98.00;;;;;;5054663;28;20820;-67
2022/11/10 02:52:44;;;;;;;2.13;1.67;;;12.00;98.00;;;;;;5055056;28;20471;-66
2022/11/10 02:55:11;;;;;;;1.73;1.33;;;11.90;98.00;;;;;;5055222;28;20459;-67
2022/11/10 02:57:40;;;;;;;1.50;1.37;;;12.00;98.00;;;;;;5055015;28;20469;-66
2022/11/10 03:00:08;;;;;;;2.50;1.43;;;11.90;98.00;;;;;;5055180;28;20461;-66
2022/11/10 03:02:36;;;;;;;1.60;1.33;;;12.00;98.00;;;;;;5054928;28;20478;-66
2022/11/10 03:05:03;;;;;;;2.03;1.47;;;12.00;98.00;;;;;;5055111;28;20921;-66
2022/11/10 03:07:30;;;;;;;2.90;1.90;;;12.00;98.00;;;;;;5054958;28;20458;-67
2022/11/10 03:09:58;;;;;;;1.40;1.30;;;12.00;98.00;;;;;;5054903;28;20945;-67
2022/11/10 03:12:25;;;;;;;2.63;1.97;;;11.90;98.00;;;;;;5054637;28;20809;-66
2022/11/10 03:14:53;;;;;;;2.13;1.60;;;11.90;98.00;;;;;;5054659;28;20454;-67
2022/11/10 03:17:22;;;;;;;1.90;1.30;;;11.80;98.00;;;;;;5054353;28;20457;-66
2022/11/10 03:19:49;;;;;;;1.83;1.40;;;11.80;98.00;;;;;;5054460;28;20513;-66
2022/11/10 03:22:17;;;;;;;2.00;1.57;;;11.80;98.00;;;;;;5054444;28;20489;-67
2022/11/10 03:24:45;;;;;;;1.43;1.30;;;11.80;98.00;;;;;;5054357;28;20460;-66
2022/11/10 03:27:12;;;;;;;2.23;1.60;;;11.80;98.00;;;;;;5054488;28;20458;-66
2022/11/10 03:29:39;;;;;;;1.40;1.27;;;11.80;98.00;;;;;;5053618;28;20479;-66
2022/11/10 03:32:07;;;;;;;2.30;1.80;;;11.80;98.00;;;;;;5054277;28;20458;-66
2022/11/10 03:34:35;;;;;;;1.80;1.50;;;11.70;98.00;;;;;;5054310;28;20455;-67
2022/11/10 03:37:01;;;;;;;1.40;1.30;;;11.60;98.00;;;;;;5054409;28;20462;-66
2022/11/10 03:39:29;;;;;;;1.47;1.30;;;11.60;98.00;;;;;;5054466;28;20495;-66
2022/11/10 03:41:56;;;;;;;2.47;1.40;;;11.60;98.00;;;;;;5054033;28;21032;-66
2022/11/10 03:44:23;;;;;;;1.90;1.50;;;11.50;98.00;;;;;;5054433;28;20815;-67
2022/11/10 03:46:50;;;;;;;4.20;1.87;;;11.40;98.00;;;;;;5054321;28;20974;-67
2022/11/10 03:49:19;;;;;;;1.60;1.30;;;11.40;98.00;;;;;;5054438;28;20458;-66
2022/11/10 03:51:46;;;;;;;2.53;1.43;;;11.40;98.00;;;;;;5053990;28;20467;-66
2022/11/10 03:54:13;;;;;;;2.83;1.60;;;11.40;98.00;;;;;;5034678;28;20465;-66
2022/11/10 03:56:40;;;;;;;2.77;1.90;;;11.40;98.00;;;;;;5053538;28;20458;-67
2022/11/10 03:59:07;;;;;;;2.07;1.60;;;11.50;98.00;;;;;;5054091;28;20457;-66
2022/11/10 04:01:34;;;;;;;1.43;1.23;;;11.50;98.00;;;;;;5053992;28;20459;-66
2022/11/10 04:04:03;;;;;;;6.33;1.80;;;11.40;98.00;;;;;;5053920;28;20863;-67
2022/11/10 04:09:15;;;;;;;2.47;2.20;;;11.40;98.00;;;;;;5054052;28;20921;-66
2022/11/10 04:17:14;;;;;;;2.67;1.90;;;11.30;98.00;;;;;;5053377;28;20453;-67
2022/11/10 04:19:45;;;;;;;2.00;1.40;;;11.20;98.00;;;;;;5053524;28;20954;-67
2022/11/10 04:23:25;;;;;;;1.97;1.63;;;11.20;98.00;;;;;;5036153;28;20493;-66
2022/11/10 04:25:00;;;;;;;1.50;1.37;;;11.20;98.00;;;;;;5053085;28;20456;-66
2022/11/10 04:27:26;;;;;;;2.83;1.83;;;11.10;98.00;;;;;;5053140;28;20794;-66
2022/11/10 04:29:53;;;;;;;1.57;1.17;;;11.10;98.00;;;;;;5053052;28;20982;-66
2022/11/10 04:32:20;;;;;;;1.50;1.23;;;11.10;98.00;;;;;;5053238;28;20452;-66
2022/11/10 04:34:47;;;;;;;3.20;1.77;;;11.10;98.00;;;;;;5053095;28;20456;-67
2022/11/10 04:37:16;;;;;;;2.10;1.40;;;11.10;98.00;;;;;;5053088;28;20519;-66
2022/11/10 04:39:43;;;;;;;3.60;1.77;;;11.10;98.00;;;;;;5053221;28;20960;-67
2022/11/10 04:42:10;;;;;;;1.30;1.20;;;11.10;98.00;;;;;;5052205;28;20967;-67
2022/11/10 04:44:37;;;;;;;1.80;1.40;;;11.20;98.00;;;;;;5052628;28;20462;-66
2022/11/10 04:47:05;;;;;;;3.60;1.60;;;11.10;98.00;;;;;;5052909;28;20464;-66
2022/11/10 04:49:32;;;;;;;2.07;1.40;;;11.10;98.00;;;;;;5053133;28;20462;-66
2022/11/10 04:51:59;;;;;;;1.83;1.70;;;11.20;98.00;;;;;;5052942;28;20457;-66
2022/11/10 04:54:28;;;;;;;1.93;1.57;;;11.20;98.00;;;;;;5052182;28;20460;-66
2022/11/10 04:56:55;;;;;;;2.23;1.63;;;11.10;98.00;;;;;;5052371;28;20548;-66
2022/11/10 04:59:22;;;;;;;1.60;1.43;;;11.00;98.00;;;;;;5051713;28;20468;-66
2022/11/10 05:01:49;;;;;;;1.60;1.33;;;11.00;98.00;;;;;;5052301;28;20855;-67
2022/11/10 05:04:17;;;;;;;1.83;1.47;;;11.00;98.00;;;;;;5052741;28;20465;-66
2022/11/10 05:06:44;;;;;;;3.20;2.03;;;11.00;98.00;;;;;;5052534;28;20471;-66
2022/11/10 05:09:11;;;;;;;4.50;2.20;;;11.00;98.00;;;;;;5052506;28;20465;-66
2022/11/10 05:11:39;;;;;;;2.03;1.40;;;10.90;98.00;;;;;;5052324;28;20511;-66
2022/11/10 05:14:07;;;;;;;2.03;1.47;;;10.80;98.00;;;;;;5052404;28;20472;-67
2022/11/10 05:16:34;;;;;;;1.50;1.30;;;10.70;98.00;;;;;;5052432;28;20453;-66
2022/11/10 05:19:01;;;;;;;5.23;2.27;;;10.70;98.00;;;;;;5052693;28;20456;-66
2022/11/10 05:21:28;;;;;;;2.17;1.40;;;10.70;98.00;;;;;;5052443;28;20477;-66
2022/11/10 05:23:58;;;;;;;3.93;1.83;;;10.60;98.00;;;;;;5051708;28;20486;-67
2022/11/10 05:26:26;;;;;;;3.53;1.57;;;10.60;98.00;;;;;;5051758;28;20486;-66
2022/11/10 05:28:55;;;;;;;3.17;1.40;;;10.70;98.00;;;;;;5051944;28;20484;-66
2022/11/10 05:31:22;;;;;;;2.17;1.60;;;10.60;98.00;;;;;;5051454;28;20465;-66
2022/11/10 05:33:49;;;;;;;2.57;1.50;;;10.60;98.00;;;;;;5032960;28;20462;-67
2022/11/10 05:36:18;;;;;;;2.07;1.63;;;10.70;98.00;;;;;;5049998;28;20814;-67
2022/11/10 05:38:45;;;;;;;2.70;1.57;;;10.80;98.00;;;;;;5051417;28;20475;-67
2022/11/10 05:41:12;;;;;;;3.70;1.60;;;10.70;98.00;;;;;;5051201;28;20668;-67
2022/11/10 05:43:39;;;;;;;2.87;1.57;;;10.50;98.00;;;;;;5051431;28;20972;-67
2022/11/10 05:46:08;;;;;;;1.50;1.20;;;10.20;98.00;;;;;;5051519;28;20819;-67
2022/11/10 05:48:35;;;;;;;1.43;1.30;;;10.10;98.00;;;;;;5051330;28;20454;-66
2022/11/10 05:51:02;;;;;;;1.87;1.50;;;10.00;98.00;;;;;;5051583;28;20468;-67
2022/11/10 05:53:29;;;;;;;1.67;1.40;;;9.80;98.00;;;;;;5051088;28;20509;-66
2022/11/10 05:55:56;;;;;;;1.50;1.27;;;9.80;98.00;;;;;;5051192;28;20466;-66
2022/11/10 05:58:24;;;;;;;1.57;1.27;;;9.70;98.00;;;;;;5051335;28;20488;-66
2022/11/10 06:00:51;;;;;;;2.03;1.70;;;9.70;98.00;;;;;;5051084;28;20459;-66
2022/11/10 06:03:19;;;;;;;1.30;1.27;;;9.70;98.00;;;;;;5051153;28;20485;-66
2022/11/10 06:05:47;;;;;;;2.00;1.40;;;9.70;98.00;;;;;;5051079;28;20455;-66
2022/11/10 06:08:14;;;;;;;1.77;1.23;;;9.60;98.00;;;;;;5050963;28;20517;-66
2022/11/10 06:10:42;;;;;;;2.20;1.53;;;9.60;98.00;;;;;;5050912;28;20511;-66
2022/11/10 06:13:09;;;;;;;2.10;1.63;;;9.60;98.00;;;;;;5051350;28;20943;-66
2022/11/10 06:15:40;;;;;;;2.27;1.20;;;9.60;98.00;;;;;;5050935;28;20859;-66
2022/11/10 06:18:07;;;;;;;2.00;1.50;;;9.50;98.00;;;;;;5050908;28;20456;-67
2022/11/10 06:20:36;;;;;;;3.50;1.73;;;9.50;98.00;;;;;;5051017;28;20461;-66
2022/11/10 06:23:05;;;;;;;2.10;1.60;;;9.40;98.00;;;;;;5051001;28;20486;-66
2022/11/10 06:25:35;;;;;;;2.90;1.63;;;9.20;98.00;;;;;;5051116;28;20514;-67
2022/11/10 06:28:03;;;;;;;1.57;1.20;;;9.10;98.00;;;;;;5050955;28;20463;-66
2022/11/10 06:30:32;;;;;;;2.37;1.73;;;9.00;98.00;;;;;;5049396;28;20473;-66
2022/11/10 06:33:02;;;;;;;3.57;1.50;;;9.00;98.00;;;;;;5033373;28;20456;-66
2022/11/10 06:35:29;;;;;;;1.30;1.20;;;8.90;98.00;;;;;;5051121;28;20461;-66
2022/11/10 06:38:04;;;;;;;1.80;1.20;;;8.90;98.00;;;;;;5050972;28;20468;-66
2022/11/10 06:40:32;;;;;;;11.90;1.50;;;8.90;98.00;;;;;;5051100;28;20461;-66
2022/11/10 06:43:00;;;;;;;2.10;1.70;;;8.90;98.00;;;;;;5051015;28;20485;-66
2022/11/10 06:45:27;;;;;;;4.33;2.10;;;8.80;98.00;;;;;;5051204;28;20478;-66
2022/11/10 06:48:02;;;;;;;2.07;1.27;;;8.90;98.00;;;;;;5050599;28;20485;-66
2022/11/10 06:50:29;;;;;;;1.63;1.30;;;9.00;98.00;;;;;;5051082;28;20534;-66
2022/11/10 06:52:57;;;;;;;1.63;1.60;;;9.00;98.00;;;;;;5050819;28;20672;-67
2022/11/10 06:55:26;;;;;;;1.90;1.30;;;8.90;98.00;;;;;;5050823;28;20465;-66
2022/11/10 06:57:53;;;;;;;2.80;1.60;;;8.90;98.00;;;;;;5050875;28;20515;-66
2022/11/10 07:00:21;;;;;;;1.53;1.27;;;9.10;98.00;;;;;;5050584;28;20979;-67
2022/11/10 07:02:48;;;;;;;2.97;1.93;;;9.10;98.00;;;;;;5050405;28;20994;-66
2022/11/10 07:05:15;;;;;;;5.73;1.60;;;9.10;98.00;;;;;;5051330;28;20902;-66
2022/11/10 07:07:43;;;;;;;1.60;1.30;;;9.10;98.00;;;;;;5036465;28;20970;-66
2022/11/10 07:10:10;;;;;;;3.00;1.80;;;9.20;98.00;;;;;;5054156;28;20467;-64
2022/11/10 07:12:38;;;;;;;3.43;1.80;;;9.20;98.00;;;;;;5054185;28;20458;-65
2022/11/10 07:15:06;;;;;;;3.50;1.53;;;9.00;98.00;;;;;;5054131;28;20462;-65
2022/11/10 07:17:39;;;;;;;2.50;2.17;;;9.10;98.00;;;;;;5054202;28;20480;-65
2022/11/10 07:20:08;;;;;;;7.00;3.07;;;9.20;98.00;;;;;;5053987;28;20887;-65
2022/11/10 07:22:35;;;;;;;8.40;2.50;;;9.30;98.00;;;;;;5053811;28;20578;-65
2022/11/10 07:25:02;;;;;;;9.10;2.50;;;9.50;98.00;;;;;;5053810;28;20748;-65
2022/11/10 07:27:29;;;;;;;10.70;2.57;;;9.60;98.00;;;;;;5036167;28;20462;-65
2022/11/10 07:29:57;;;;;;;3.37;2.10;;;9.60;98.00;;;;;;5053944;28;20881;-64
2022/11/10 07:32:24;;;;;;;7.10;2.37;;;9.50;98.00;;;;;;5053700;28;20460;-65
2022/11/10 07:34:52;;;;;;;2.57;1.90;;;9.60;98.00;;;;;;5054084;28;20951;-64
2022/11/10 07:37:19;;;;;;;4.77;2.33;;;9.60;98.00;;;;;;5053817;28;20477;-65
2022/11/10 07:39:46;;;;;;;4.57;2.53;;;9.70;98.00;;;;;;5053640;28;20464;-64
2022/11/10 07:42:13;;;;;;;1.80;1.53;;;9.70;98.00;;;;;;5035913;28;20454;-65
2022/11/10 07:44:40;;;;;;;7.70;2.13;;;9.80;98.00;;;;;;5053373;28;20485;-64
2022/11/10 07:47:08;;;;;;;2.10;1.83;;;9.80;98.00;;;;;;5053405;28;20463;-64
2022/11/10 07:49:35;;;;;;;2.40;2.00;;;9.80;98.00;;;;;;5053559;28;20875;-63
2022/11/10 07:52:02;;;;;;;3.10;1.80;;;9.80;98.00;;;;;;5053537;28;20932;-63
2022/11/10 07:54:29;;;;;;;2.23;1.73;;;9.80;98.00;;;;;;5053226;28;20530;-64
2022/11/10 07:56:57;;;;;;;3.10;1.73;;;9.80;98.00;;;;;;5053509;28;20462;-63
2022/11/10 07:59:24;;;;;;;3.10;2.00;;;10.00;98.00;;;;;;5035609;28;20510;-63
2022/11/10 08:01:51;;;;;;;9.13;2.80;;;10.10;98.00;;;;;;5053145;28;20474;-62
2022/11/10 08:04:19;;;;;;;4.23;2.37;;;10.20;98.00;;;;;;5052956;28;20538;-62
2022/11/10 08:06:46;;;;;;;3.90;2.10;;;10.30;98.00;;;;;;5053266;28;20461;-65
2022/11/10 08:09:14;;;;;;;4.00;2.20;;;10.30;98.00;;;;;;5052939;28;20910;-64
2022/11/10 08:11:41;;;;;;;7.63;2.47;;;10.30;98.00;;;;;;5052933;28;20458;-65
2022/11/10 08:14:08;;;;;;;3.90;2.17;;;10.50;98.00;;;;;;5035332;28;21002;-65
2022/11/10 08:16:35;;;;;;;2.70;1.90;;;10.50;98.00;;;;;;5052267;28;20455;-63
2022/11/10 08:19:02;;;;;;;2.30;1.93;;;10.60;98.00;;;;;;5035413;28;20541;-64
2022/11/10 08:21:32;;;;;;;2.47;1.93;;;10.50;98.00;;;;;;5035431;28;20834;-64
2022/11/10 08:23:59;;;;;;;3.37;2.50;;;10.40;98.00;;;;;;5035117;28;20882;-65
2022/11/10 08:26:28;;;;;;;2.37;2.00;;;10.50;98.00;;;;;;5035185;28;20467;-65
2022/11/10 08:28:55;;;;;;;3.10;2.10;;;10.60;98.00;;;;;;5052728;28;20459;-65
2022/11/10 08:31:22;;;;;;;2.33;1.90;;;10.70;98.00;;;;;;5053075;28;20463;-64
2022/11/10 08:33:49;;;;;;;4.77;2.60;;;10.70;98.00;;;;;;5035030;28;20457;-65
2022/11/10 08:36:18;;;;;;;3.80;2.20;;;10.80;98.00;;;;;;5052401;28;20465;-64
2022/11/10 08:38:46;;;;;;;4.23;2.37;;;10.90;98.00;;;;;;5052322;28;20471;-65
2022/11/10 08:41:13;;;;;;;6.70;3.10;;;11.00;98.00;;;;;;5052601;28;20867;-64
2022/11/10 08:43:40;;;;;;;9.80;3.77;;;11.10;98.00;;;;;;5052314;28;20474;-64
2022/11/10 08:46:07;;;;;;;3.80;2.77;;;10.90;98.00;;;;;;5052204;28;20457;-63
2022/11/10 08:48:34;;;;;;;11.13;3.70;;;10.70;98.00;;;;;;5052192;28;20512;-62
2022/11/10 08:51:01;;;;;;;5.03;2.50;;;10.80;98.00;;;;;;5052184;28;20510;-63
2022/11/10 08:53:29;;;;;;;5.50;3.33;;;11.00;98.00;;;;;;5052044;28;20524;-64
2022/11/10 08:56:00;;;;;;;4.90;2.80;;;11.10;98.00;;;;;;5034448;28;20518;-63
2022/11/10 08:58:27;;;;;;;7.17;3.17;;;11.20;98.00;;;;;;5052211;28;20461;-63
2022/11/10 09:00:54;;;;;;;5.30;3.50;;;11.30;98.00;;;;;;5052034;28;20459;-63
2022/11/10 09:03:22;;;;;;;10.03;3.27;;;11.30;98.00;;;;;;5051943;28;20512;-61
2022/11/10 09:05:51;;;;;;;11.13;4.00;;;11.40;98.00;;;;;;5051887;28;20461;-63
2022/11/10 09:08:18;;;;;;;5.53;3.10;;;11.50;98.00;;;;;;5051859;28;20461;-62
2022/11/10 09:10:49;;;;;;;3.90;2.40;;;11.60;98.00;;;;;;5051856;28;20457;-63
2022/11/10 09:13:20;;;;;;;5.97;3.30;;;11.70;98.00;;;;;;5052031;28;20826;-63
2022/11/10 09:15:47;;;;;;;5.00;2.93;;;11.80;98.00;;;;;;5051670;28;21049;-63
2022/11/10 09:18:16;;;;;;;4.93;2.53;;;11.80;98.00;;;;;;5051715;28;20967;-63
2022/11/10 09:20:43;;;;;;;6.27;3.00;;;11.80;98.00;;;;;;5051679;28;20833;-62
2022/11/10 09:23:12;;;;;;;3.17;2.30;;;11.70;98.00;;;;;;5051875;28;20487;-64
2022/11/10 09:25:40;;;;;;;6.30;3.07;;;11.70;98.00;;;;;;5051797;28;20826;-64
2022/11/10 09:28:12;;;;;;;4.00;2.60;;;11.80;98.00;;;;;;5050831;28;20460;-64
2022/11/10 09:30:41;;;;;;;4.13;2.70;;;12.00;98.00;;;;;;5051533;28;20465;-63
2022/11/10 09:33:09;;;;;;;6.40;3.27;;;12.10;98.00;;;;;;5051770;28;20462;-62
2022/11/10 09:35:36;;;;;;;5.57;2.80;;;12.10;98.00;;;;;;5051407;28;20527;-62
2022/11/10 09:38:04;;;;;;;4.43;2.60;;;12.00;98.00;;;;;;5051583;28;20510;-64
2022/11/10 09:40:47;;;;;;;4.23;2.50;;;12.10;98.00;;;;;;5051594;28;20450;-63
2022/11/10 09:43:33;;;;;;;4.07;2.67;;;12.10;98.00;;;;;;5051149;28;20483;-64
2022/11/10 09:46:09;;;;;;;5.93;2.80;;;12.10;98.00;;;;;;5051395;28;20465;-62
2022/11/10 09:48:42;;;;;;;3.53;2.13;;;12.10;98.00;;;;;;5034369;28;20470;-62
2022/11/10 09:51:15;;;;;;;3.37;2.30;;;12.10;98.00;;;;;;5034488;28;20875;-63
2022/11/10 09:53:48;;;;;;;3.57;2.20;;;12.10;98.00;;;;;;5051100;28;20464;-62
2022/11/10 09:56:20;;;;;;;12.53;2.93;;;12.20;98.00;;;;;;5051345;28;20862;-62
2022/11/10 09:58:47;;;;;;;2.63;2.00;;;12.30;98.00;;;;;;5033871;28;20460;-63
2022/11/10 10:01:27;;;;;;;2.70;1.80;;;12.30;98.00;;;;;;5051215;28;20456;-63
2022/11/10 10:04:03;;;;;;;1.80;1.73;;;12.40;98.00;;;;;;5050948;28;20477;-64
2022/11/10 10:06:36;;;;;;;2.77;1.80;;;12.50;98.00;;;;;;5051216;28;20853;-65
2022/11/10 10:09:16;;;;;;;3.10;1.90;;;12.50;98.00;;;;;;5050929;28;20527;-65
2022/11/10 10:11:53;;;;;;;2.10;1.70;;;12.70;98.00;;;;;;5051269;28;20450;-64
2022/11/10 10:14:49;;;;;;;1.93;1.40;;;12.80;98.00;;;;;;5051055;28;20449;-65
2022/11/10 10:17:22;;;;;;;3.40;1.70;;;12.80;98.00;;;;;;5035896;28;20455;-65
2022/11/10 10:19:56;;;;;;;2.53;1.63;;;12.90;98.00;;;;;;5051369;28;20457;-64
2022/11/10 10:22:48;;;;;;;1.80;1.30;;;13.10;98.00;;;;;;5051081;28;20465;-65
2022/11/10 10:25:19;;;;;;;1.87;1.37;;;13.20;98.00;;;;;;5050895;28;20488;-65
2022/11/10 10:27:52;;;;;;;1.40;1.30;;;13.30;98.00;;;;;;5050960;28;20458;-65
2022/11/10 10:30:20;;;;;;;1.60;1.30;;;13.40;98.00;;;;;;5051477;28;21020;-65
2022/11/10 10:32:55;;;;;;;4.83;2.03;;;13.40;98.00;;;;;;5051208;28;20979;-65
2022/11/10 10:35:23;;;;;;;1.40;1.30;;;13.60;98.00;;;;;;5051651;28;20454;-65
2022/11/10 10:37:53;;;;;;;1.50;1.47;;;13.70;98.00;;;;;;5051202;28;20498;-65
2022/11/10 10:40:23;;;;;;;2.07;1.40;;;13.80;98.00;;;;;;5053315;28;20522;-65
2022/11/10 10:42:50;;;;;;;1.60;1.30;;;13.90;98.00;;;;;;5054694;28;20466;-65
2022/11/10 10:45:23;;;;;;;2.10;1.47;;;14.10;98.00;;;;;;5053648;28;20667;-64
2022/11/10 10:47:52;;;;;;;1.87;1.70;;;14.20;98.00;;;;;;5054575;28;20459;-66
2022/11/10 10:50:27;;;;;;;11.60;1.80;;;14.40;98.00;;;;;;5036807;28;20463;-65
2022/11/10 10:53:13;;;;;;;3.63;1.63;;;14.60;98.00;;;;;;5054397;28;20459;-64
2022/11/10 10:55:46;;;;;;;3.70;1.50;;;14.80;98.00;;;;;;5055043;28;20471;-65
2022/11/10 10:58:21;;;;;;;3.97;1.80;;;14.90;98.00;;;;;;5055291;28;20465;-65
2022/11/10 11:00:50;;;;;;;2.67;1.57;;;15.10;98.00;;;;;;5055184;28;20457;-66
2022/11/10 11:03:30;;;;;;;4.97;1.50;;;15.20;98.00;;;;;;5054894;28;20460;-65
2022/11/10 11:06:06;;;;;;;1.73;1.37;;;15.30;98.00;;;;;;5055073;28;20515;-66
2022/11/10 11:08:33;;;;;;;3.60;1.60;;;15.40;98.00;;;;;;5052271;28;20463;-65
2022/11/10 11:11:11;;;;;;;1.60;1.40;;;15.50;98.00;;;;;;5051938;28;20873;-65
2022/11/10 11:13:40;;;;;;;1.90;1.53;;;15.60;98.00;;;;;;5051688;28;21262;-65
2022/11/10 11:16:11;;;;;;;1.70;1.50;;;15.70;98.00;;;;;;5051534;28;20457;-65
2022/11/10 11:18:40;;;;;;;1.67;1.33;;;15.90;98.00;;;;;;5054726;28;20479;-65
2022/11/10 11:21:14;;;;;;;1.30;1.20;;;16.20;98.00;;;;;;5054539;28;20466;-65
2022/11/10 11:24:00;;;;;;;1.50;1.30;;;16.50;98.00;;;;;;5054369;28;20999;-65
2022/11/10 11:26:40;;;;;;;2.07;1.60;;;16.80;98.00;;;;;;5050873;28;20470;-66
2022/11/10 11:29:20;;;;;;;1.40;1.30;;;17.10;98.00;;;;;;5054280;28;20461;-65
2022/11/10 11:31:57;;;;;;;1.57;1.40;;;17.20;98.00;;;;;;5054420;28;20554;-65
2022/11/10 11:34:32;;;;;;;3.13;1.60;;;16.90;98.00;;;;;;5054418;28;20840;-65
2022/11/10 11:37:05;;;;;;;2.20;1.50;;;16.80;98.00;;;;;;5054409;28;20461;-65
2022/11/10 11:39:46;;;;;;;2.23;1.20;;;16.90;98.00;;;;;;5054212;28;20459;-65
2022/11/10 11:42:27;;;;;;;2.20;1.50;;;17.30;98.00;;;;;;5054475;28;20453;-65
2022/11/10 11:45:07;;;;;;;1.87;1.20;;;17.90;98.00;;;;;;5054073;28;20481;-66
2022/11/10 11:47:49;;;;;;;1.80;1.53;;;18.20;98.00;;;;;;5054114;28;20959;-65
2022/11/10 11:50:28;;;;;;;4.03;1.63;;;18.30;98.00;;;;;;5037578;28;20464;-65
2022/11/10 11:53:03;;;;;;;2.07;1.43;;;18.20;98.00;;;;;;5053768;28;20458;-66
2022/11/10 11:55:54;;;;;;;1.70;1.50;;;17.90;98.00;;;;;;5054085;28;20548;-66
2022/11/10 11:58:32;;;;;;;1.57;1.40;;;18.00;98.00;;;;;;5054133;28;20462;-65
2022/11/10 12:01:11;;;;;;;1.60;1.27;;;18.30;98.00;;;;;;5054022;28;20457;-65
2022/11/10 12:04:03;;;;;;;1.87;1.50;;;18.70;98.00;;;;;;5054047;28;20462;-65
2022/11/10 12:06:47;;;;;;;1.93;1.50;;;18.80;98.00;;;;;;5054143;28;20450;-65
2022/11/10 12:09:22;;;;;;;1.63;1.40;;;18.30;98.00;;;;;;5053776;28;20522;-65
2022/11/10 12:12:02;;;;;;;1.93;1.60;;;18.00;98.00;;;;;;5053847;28;20461;-66
2022/11/10 12:14:38;;;;;;;1.50;1.40;;;18.40;98.00;;;;;;5053319;28;20948;-66
2022/11/10 12:17:14;;;;;;;2.40;1.70;;;18.80;98.00;;;;;;5053203;28;20452;-66
2022/11/10 12:19:50;;;;;;;3.40;1.90;;;19.00;98.00;;;;;;5035856;28;20449;-66
2022/11/10 12:22:27;;;;;;;2.97;1.57;;;18.90;98.00;;;;;;5053360;28;20453;-65
2022/11/10 12:25:10;;;;;;;1.70;1.40;;;19.10;98.00;;;;;;5053334;28;20481;-65
2022/11/10 12:27:42;;;;;;;5.70;1.53;;;19.60;98.00;;;;;;5053315;28;20466;-66
2022/11/10 12:30:12;;;;;;;1.53;1.50;;;20.00;98.00;;;;;;5053292;28;20466;-66
2022/11/10 12:32:45;;;;;;;2.17;1.50;;;20.10;98.00;;;;;;5053270;28;20457;-67
2022/11/10 12:35:18;;;;;;;2.07;1.30;;;20.50;98.00;;;;;;5053640;28;20488;-66
2022/11/10 12:37:53;;;;;;;1.63;1.50;;;20.70;97.70;;;;;;5053210;28;20516;-65
2022/11/10 12:40:22;;;;;;;2.10;1.40;;;20.60;95.00;;;;;;5053308;28;20453;-66
2022/11/10 12:42:58;;;;;;;1.70;1.60;;;20.60;93.20;;;;;;5053113;28;20529;-67
2022/11/10 12:45:31;;;;;;;2.10;1.43;;;20.60;95.90;;;;;;5053065;28;20511;-66
2022/11/10 12:48:00;;;;;;;3.50;1.53;;;20.90;95.60;;;;;;5052558;28;20461;-66
2022/11/10 12:50:45;;;;;;;1.80;1.50;;;21.20;95.50;;;;;;5052961;28;20461;-66
2022/11/10 12:53:21;;;;;;;2.33;1.50;;;21.00;93.90;;;;;;5035446;28;20461;-66
2022/11/10 12:55:56;;;;;;;1.87;1.83;;;21.10;93.10;;;;;;5053040;28;20875;-65
2022/11/10 12:58:25;;;;;;;4.13;2.00;;;21.00;92.60;;;;;;5051210;28;20457;-70
2022/11/10 13:00:59;;;;;;;3.17;1.93;;;21.20;97.30;;;;;;5052895;28;20879;-68
2022/11/10 13:03:28;;;;;;;2.60;1.50;;;21.50;94.50;;;;;;5051751;28;20461;-68
2022/11/10 13:05:57;;;;;;;1.80;1.50;;;21.70;97.30;;;;;;5052404;28;20485;-68
2022/11/10 13:08:33;;;;;;;2.23;1.60;;;21.90;95.30;;;;;;5052491;28;20535;-68
2022/11/10 13:11:07;;;;;;;2.50;1.87;;;21.70;92.60;;;;;;5052351;28;20464;-64
2022/11/10 13:13:43;;;;;;;2.93;1.67;;;21.20;93.80;;;;;;5052230;28;20453;-66